sensor_id;sensor_type;location;lat;lon;timestamp;temperature;humidity
22558;DHT22;11445;53.816;8.902;2023-11-21T00:02:18;8.90;99.90
22558;DHT22;11445;53.816;8.902;2023-11-21T00:04:45;8.90;99.90
22558;DHT22;11445;53.816;8.902;2023-11-21T00:07:12;8.80;99.90
22558;DHT22;11445;53.816;8.902;2023-11-21T00:09:40;8.80;99.90
22558;DHT22;11445;53.816;8.902;2023-11-21T00:12:07;8.80;99.90
22558;DHT22;11445;53.816;8.902;2023-11-21T00:14:35;8.80;99.90
22558;DHT22;11445;53.816;8.902;2023-11-21T00:17:02;8.70;99.90
22558;DHT22;11445;53.816;8.902;2023-11-21T00:19:31;8.70;99.90
22558;DHT22;11445;53.816;8.902;2023-11-21T00:21:58;8.70;99.90
22558;DHT22;11445;53.816;8.902;2023-11-21T00:24:25;8.70;99.90
22558;DHT22;11445;53.816;8.902;2023-11-21T00:26:52;8.70;99.90
22558;DHT22;11445;53.816;8.902;2023-11-21T00:29:19;8.60;99.90
22558;DHT22;11445;53.816;8.902;2023-11-21T00:31:45;8.60;99.90
22558;DHT22;11445;53.816;8.902;2023-11-21T00:34:12;8.60;99.90
22558;DHT22;11445;53.816;8.902;2023-11-21T00:36:40;8.60;99.90
22558;DHT22;11445;53.816;8.902;2023-11-21T00:39:07;8.60;99.90
22558;DHT22;11445;53.816;8.902;2023-11-21T00:41:34;8.50;99.90
22558;DHT22;11445;53.816;8.902;2023-11-21T00:44:02;8.50;99.90
22558;DHT22;11445;53.816;8.902;2023-11-21T00:46:28;8.50;99.90
22558;DHT22;11445;53.816;8.902;2023-11-21T00:48:55;8.50;99.90
22558;DHT22;11445;53.816;8.902;2023-11-21T00:51:22;8.40;99.90
22558;DHT22;11445;53.816;8.902;2023-11-21T00:53:51;8.40;99.90
22558;DHT22;11445;53.816;8.902;2023-11-21T00:56:18;8.40;99.90
22558;DHT22;11445;53.816;8.902;2023-11-21T00:58:45;8.40;99.90
22558;DHT22;11445;53.816;8.902;2023-11-21T01:01:15;8.40;99.90
22558;DHT22;11445;53.816;8.902;2023-11-21T01:03:42;8.30;99.90
22558;DHT22;11445;53.816;8.902;2023-11-21T01:06:09;8.30;99.90
22558;DHT22;11445;53.816;8.902;2023-11-21T01:08:36;8.30;99.90
22558;DHT22;11445;53.816;8.902;2023-11-21T01:11:05;8.30;99.90
22558;DHT22;11445;53.816;8.902;2023-11-21T01:13:33;8.30;99.90
22558;DHT22;11445;53.816;8.902;2023-11-21T01:16:01;8.30;99.90
22558;DHT22;11445;53.816;8.902;2023-11-21T01:18:29;8.30;99.90
22558;DHT22;11445;53.816;8.902;2023-11-21T01:20:56;8.30;99.90
22558;DHT22;11445;53.816;8.902;2023-11-21T01:23:23;8.30;99.90
22558;DHT22;11445;53.816;8.902;2023-11-21T01:25:49;8.30;99.90
22558;DHT22;11445;53.816;8.902;2023-11-21T01:28:18;8.30;99.90
22558;DHT22;11445;53.816;8.902;2023-11-21T01:30:46;8.30;99.90
22558;DHT22;11445;53.816;8.902;2023-11-21T01:33:12;8.30;99.90
22558;DHT22;11445;53.816;8.902;2023-11-21T01:35:41;8.30;99.90
22558;DHT22;11445;53.816;8.902;2023-11-21T01:38:08;8.30;99.90
22558;DHT22;11445;53.816;8.902;2023-11-21T01:40:35;8.30;99.90
22558;DHT22;11445;53.816;8.902;2023-11-21T01:43:01;8.30;99.90
22558;DHT22;11445;53.816;8.902;2023-11-21T01:45:30;8.30;99.90
22558;DHT22;11445;53.816;8.902;2023-11-21T01:47:59;8.20;99.90
22558;DHT22;11445;53.816;8.902;2023-11-21T01:50:27;8.20;99.90
22558;DHT22;11445;53.816;8.902;2023-11-21T01:52:54;8.20;99.90
22558;DHT22;11445;53.816;8.902;2023-11-21T01:55:22;8.20;99.90
22558;DHT22;11445;53.816;8.902;2023-11-21T01:57:49;8.20;99.90
22558;DHT22;11445;53.816;8.902;2023-11-21T02:00:16;8.20;99.90
22558;DHT22;11445;53.816;8.902;2023-11-21T02:02:46;8.20;99.90
22558;DHT22;11445;53.816;8.902;2023-11-21T02:05:15;8.20;99.90
22558;DHT22;11445;53.816;8.902;2023-11-21T02:07:44;8.20;99.90
22558;DHT22;11445;53.816;8.902;2023-11-21T02:10:13;8.20;99.90
22558;DHT22;11445;53.816;8.902;2023-11-21T02:12:41;8.20;99.90
22558;DHT22;11445;53.816;8.902;2023-11-21T02:15:10;8.20;99.90
22558;DHT22;11445;53.816;8.902;2023-11-21T02:17:41;8.20;99.90
22558;DHT22;11445;53.816;8.902;2023-11-21T02:20:11;8.20;99.90
22558;DHT22;11445;53.816;8.902;2023-11-21T02:22:41;8.10;99.90
22558;DHT22;11445;53.816;8.902;2023-11-21T02:25:10;8.20;99.90
22558;DHT22;11445;53.816;8.902;2023-11-21T02:27:37;8.10;99.90
22558;DHT22;11445;53.816;8.902;2023-11-21T02:30:04;8.00;99.90
22558;DHT22;11445;53.816;8.902;2023-11-21T02:32:33;8.00;99.90
22558;DHT22;11445;53.816;8.902;2023-11-21T02:35:00;8.00;99.90
22558;DHT22;11445;53.816;8.902;2023-11-21T02:37:27;8.00;99.90
22558;DHT22;11445;53.816;8.902;2023-11-21T02:39:54;8.00;99.90
22558;DHT22;11445;53.816;8.902;2023-11-21T02:42:23;8.00;99.90
22558;DHT22;11445;53.816;8.902;2023-11-21T02:44:49;8.00;99.90
22558;DHT22;11445;53.816;8.902;2023-11-21T02:47:16;8.00;99.90
22558;DHT22;11445;53.816;8.902;2023-11-21T02:49:43;8.00;99.90
22558;DHT22;11445;53.816;8.902;2023-11-21T02:52:10;8.00;99.90
22558;DHT22;11445;53.816;8.902;2023-11-21T02:54:36;7.90;99.90
22558;DHT22;11445;53.816;8.902;2023-11-21T02:57:04;7.90;99.90
22558;DHT22;11445;53.816;8.902;2023-11-21T02:59:32;7.90;99.90
22558;DHT22;11445;53.816;8.902;2023-11-21T03:02:00;7.90;99.90
22558;DHT22;11445;53.816;8.902;2023-11-21T03:04:27;7.90;99.90
22558;DHT22;11445;53.816;8.902;2023-11-21T03:06:54;7.80;99.90
22558;DHT22;11445;53.816;8.902;2023-11-21T03:09:20;7.80;99.90
22558;DHT22;11445;53.816;8.902;2023-11-21T03:11:47;7.80;99.90
22558;DHT22;11445;53.816;8.902;2023-11-21T03:14:14;7.70;99.90
22558;DHT22;11445;53.816;8.902;2023-11-21T03:16:42;7.70;99.90
22558;DHT22;11445;53.816;8.902;2023-11-21T03:19:10;7.70;99.90
22558;DHT22;11445;53.816;8.902;2023-11-21T03:21:37;7.70;99.90
22558;DHT22;11445;53.816;8.902;2023-11-21T03:24:05;7.70;99.90
22558;DHT22;11445;53.816;8.902;2023-11-21T03:26:32;7.70;99.90
22558;DHT22;11445;53.816;8.902;2023-11-21T03:28:59;7.60;99.90
22558;DHT22;11445;53.816;8.902;2023-11-21T03:31:26;7.60;99.90
22558;DHT22;11445;53.816;8.902;2023-11-21T03:33:54;7.60;99.90
22558;DHT22;11445;53.816;8.902;2023-11-21T03:36:21;7.60;99.90
22558;DHT22;11445;53.816;8.902;2023-11-21T03:38:50;7.60;99.90
22558;DHT22;11445;53.816;8.902;2023-11-21T03:41:17;7.60;99.90
22558;DHT22;11445;53.816;8.902;2023-11-21T03:43:44;7.50;99.90
22558;DHT22;11445;53.816;8.902;2023-11-21T03:46:11;7.50;99.90
22558;DHT22;11445;53.816;8.902;2023-11-21T03:48:38;7.50;99.90
22558;DHT22;11445;53.816;8.902;2023-11-21T03:51:06;7.50;99.90
22558;DHT22;11445;53.816;8.902;2023-11-21T03:53:33;7.40;99.90
22558;DHT22;11445;53.816;8.902;2023-11-21T03:56:02;7.40;99.90
22558;DHT22;11445;53.816;8.902;2023-11-21T03:58:29;7.40;99.90
22558;DHT22;11445;53.816;8.902;2023-11-21T04:00:56;7.40;99.90
22558;DHT22;11445;53.816;8.902;2023-11-21T04:03:22;7.40;99.90
22558;DHT22;11445;53.816;8.902;2023-11-21T04:05:49;7.40;99.90
22558;DHT22;11445;53.816;8.902;2023-11-21T04:08:17;7.40;99.90
22558;DHT22;11445;53.816;8.902;2023-11-21T04:10:44;7.30;99.90
22558;DHT22;11445;53.816;8.902;2023-11-21T04:13:11;7.40;99.90
22558;DHT22;11445;53.816;8.902;2023-11-21T04:15:38;7.40;99.90
22558;DHT22;11445;53.816;8.902;2023-11-21T04:18:05;7.40;99.90
22558;DHT22;11445;53.816;8.902;2023-11-21T04:20:31;7.40;99.90
22558;DHT22;11445;53.816;8.902;2023-11-21T04:22:58;7.30;99.90
22558;DHT22;11445;53.816;8.902;2023-11-21T04:25:26;7.40;99.90
22558;DHT22;11445;53.816;8.902;2023-11-21T04:27:53;7.30;99.90
22558;DHT22;11445;53.816;8.902;2023-11-21T04:30:20;7.30;99.90
22558;DHT22;11445;53.816;8.902;2023-11-21T04:32:47;7.40;99.90
22558;DHT22;11445;53.816;8.902;2023-11-21T04:35:14;7.40;99.90
22558;DHT22;11445;53.816;8.902;2023-11-21T04:37:41;7.40;99.90
22558;DHT22;11445;53.816;8.902;2023-11-21T04:40:08;7.40;99.90
22558;DHT22;11445;53.816;8.902;2023-11-21T04:42:37;7.40;99.90
22558;DHT22;11445;53.816;8.902;2023-11-21T04:45:04;7.40;99.90
22558;DHT22;11445;53.816;8.902;2023-11-21T04:47:34;7.40;99.90
22558;DHT22;11445;53.816;8.902;2023-11-21T04:50:01;7.40;99.90
22558;DHT22;11445;53.816;8.902;2023-11-21T04:52:28;7.40;99.90
22558;DHT22;11445;53.816;8.902;2023-11-21T04:54:55;7.40;99.90
22558;DHT22;11445;53.816;8.902;2023-11-21T04:57:23;7.40;99.90
22558;DHT22;11445;53.816;8.902;2023-11-21T04:59:52;7.40;99.90
22558;DHT22;11445;53.816;8.902;2023-11-21T05:02:18;7.40;99.90
22558;DHT22;11445;53.816;8.902;2023-11-21T05:04:46;7.40;99.90
22558;DHT22;11445;53.816;8.902;2023-11-21T05:07:13;7.40;99.90
22558;DHT22;11445;53.816;8.902;2023-11-21T05:09:42;7.40;99.90
22558;DHT22;11445;53.816;8.902;2023-11-21T05:12:11;7.40;99.90
22558;DHT22;11445;53.816;8.902;2023-11-21T05:14:38;7.40;99.90
22558;DHT22;11445;53.816;8.902;2023-11-21T05:17:06;7.40;99.90
22558;DHT22;11445;53.816;8.902;2023-11-21T05:19:34;7.40;99.90
22558;DHT22;11445;53.816;8.902;2023-11-21T05:22:01;7.40;99.90
22558;DHT22;11445;53.816;8.902;2023-11-21T05:24:28;7.40;99.90
22558;DHT22;11445;53.816;8.902;2023-11-21T05:26:55;7.40;99.90
22558;DHT22;11445;53.816;8.902;2023-11-21T05:29:23;7.40;99.90
22558;DHT22;11445;53.816;8.902;2023-11-21T05:31:51;7.40;99.90
22558;DHT22;11445;53.816;8.902;2023-11-21T05:34:19;7.40;99.90
22558;DHT22;11445;53.816;8.902;2023-11-21T05:36:49;7.40;99.90
22558;DHT22;11445;53.816;8.902;2023-11-21T05:39:16;7.40;99.90
22558;DHT22;11445;53.816;8.902;2023-11-21T05:41:44;7.40;99.90
22558;DHT22;11445;53.816;8.902;2023-11-21T05:44:11;7.40;99.90
22558;DHT22;11445;53.816;8.902;2023-11-21T05:46:40;7.40;99.90
22558;DHT22;11445;53.816;8.902;2023-11-21T05:49:08;7.30;99.90
22558;DHT22;11445;53.816;8.902;2023-11-21T05:51:36;7.40;99.90
22558;DHT22;11445;53.816;8.902;2023-11-21T05:54:04;7.40;99.90
22558;DHT22;11445;53.816;8.902;2023-11-21T05:56:31;7.40;99.90
22558;DHT22;11445;53.816;8.902;2023-11-21T05:58:58;7.40;99.90
22558;DHT22;11445;53.816;8.902;2023-11-21T06:01:25;7.40;99.90
22558;DHT22;11445;53.816;8.902;2023-11-21T06:03:53;7.40;99.90
22558;DHT22;11445;53.816;8.902;2023-11-21T06:06:20;7.40;99.90
22558;DHT22;11445;53.816;8.902;2023-11-21T06:08:49;7.40;99.90
22558;DHT22;11445;53.816;8.902;2023-11-21T06:11:16;7.70;99.90
22558;DHT22;11445;53.816;8.902;2023-11-21T06:13:43;7.60;99.90
22558;DHT22;11445;53.816;8.902;2023-11-21T06:16:10;7.60;99.90
22558;DHT22;11445;53.816;8.902;2023-11-21T06:18:38;7.60;99.90
22558;DHT22;11445;53.816;8.902;2023-11-21T06:21:06;7.60;99.90
22558;DHT22;11445;53.816;8.902;2023-11-21T06:23:36;7.60;99.90
22558;DHT22;11445;53.816;8.902;2023-11-21T06:26:04;7.50;99.90
22558;DHT22;11445;53.816;8.902;2023-11-21T06:28:31;7.50;99.90
22558;DHT22;11445;53.816;8.902;2023-11-21T06:30:58;7.50;99.90
22558;DHT22;11445;53.816;8.902;2023-11-21T06:33:30;7.50;99.90
22558;DHT22;11445;53.816;8.902;2023-11-21T06:35:57;7.50;99.90
22558;DHT22;11445;53.816;8.902;2023-11-21T06:38:24;7.50;99.90
22558;DHT22;11445;53.816;8.902;2023-11-21T06:40:55;7.50;99.90
22558;DHT22;11445;53.816;8.902;2023-11-21T06:43:23;7.60;99.90
22558;DHT22;11445;53.816;8.902;2023-11-21T06:45:50;7.60;99.90
22558;DHT22;11445;53.816;8.902;2023-11-21T06:48:17;7.60;99.90
22558;DHT22;11445;53.816;8.902;2023-11-21T06:50:44;7.60;99.90
22558;DHT22;11445;53.816;8.902;2023-11-21T06:53:12;7.50;99.90
22558;DHT22;11445;53.816;8.902;2023-11-21T06:55:39;7.50;99.90
22558;DHT22;11445;53.816;8.902;2023-11-21T06:58:06;7.50;99.90
22558;DHT22;11445;53.816;8.902;2023-11-21T07:00:34;7.50;99.90
22558;DHT22;11445;53.816;8.902;2023-11-21T07:03:01;7.50;99.90
22558;DHT22;11445;53.816;8.902;2023-11-21T07:05:27;7.50;99.90
22558;DHT22;11445;53.816;8.902;2023-11-21T07:07:54;7.50;99.90
22558;DHT22;11445;53.816;8.902;2023-11-21T07:10:21;7.50;99.90
22558;DHT22;11445;53.816;8.902;2023-11-21T07:12:48;7.50;99.90
22558;DHT22;11445;53.816;8.902;2023-11-21T07:15:16;7.50;99.90
22558;DHT22;11445;53.816;8.902;2023-11-21T07:17:46;7.50;99.90
22558;DHT22;11445;53.816;8.902;2023-11-21T07:20:14;7.40;99.90
22558;DHT22;11445;53.816;8.902;2023-11-21T07:22:42;7.40;99.90
22558;DHT22;11445;53.816;8.902;2023-11-21T07:25:09;7.50;99.90
22558;DHT22;11445;53.816;8.902;2023-11-21T07:27:36;7.40;99.90
22558;DHT22;11445;53.816;8.902;2023-11-21T07:30:04;7.40;99.90
22558;DHT22;11445;53.816;8.902;2023-11-21T07:32:32;7.40;99.90
22558;DHT22;11445;53.816;8.902;2023-11-21T07:35:00;7.40;99.90
22558;DHT22;11445;53.816;8.902;2023-11-21T07:37:27;7.40;99.90
22558;DHT22;11445;53.816;8.902;2023-11-21T07:39:54;7.40;99.90
22558;DHT22;11445;53.816;8.902;2023-11-21T07:42:22;7.40;99.90
22558;DHT22;11445;53.816;8.902;2023-11-21T07:44:49;7.40;99.90
22558;DHT22;11445;53.816;8.902;2023-11-21T07:47:17;7.40;99.90
22558;DHT22;11445;53.816;8.902;2023-11-21T07:49:44;7.40;99.90
22558;DHT22;11445;53.816;8.902;2023-11-21T07:52:13;7.40;99.90
22558;DHT22;11445;53.816;8.902;2023-11-21T07:54:41;7.40;99.90
22558;DHT22;11445;53.816;8.902;2023-11-21T07:57:08;7.40;99.90
22558;DHT22;11445;53.816;8.902;2023-11-21T07:59:38;7.40;99.90
22558;DHT22;11445;53.816;8.902;2023-11-21T08:02:06;7.40;99.90
22558;DHT22;11445;53.816;8.902;2023-11-21T08:04:33;7.30;99.90
22558;DHT22;11445;53.816;8.902;2023-11-21T08:07:01;7.40;99.90
22558;DHT22;11445;53.816;8.902;2023-11-21T08:09:30;7.40;99.90
22558;DHT22;11445;53.816;8.902;2023-11-21T08:11:58;7.40;99.90
22558;DHT22;11445;53.816;8.902;2023-11-21T08:14:26;7.40;99.90
22558;DHT22;11445;53.816;8.902;2023-11-21T08:16:53;7.40;99.90
22558;DHT22;11445;53.816;8.902;2023-11-21T08:19:23;7.40;99.90
22558;DHT22;11445;53.816;8.902;2023-11-21T08:21:50;7.30;99.90
22558;DHT22;11445;53.816;8.902;2023-11-21T08:24:20;7.40;99.90
22558;DHT22;11445;53.816;8.902;2023-11-21T08:26:48;7.40;99.90
22558;DHT22;11445;53.816;8.902;2023-11-21T08:29:16;7.40;99.90
22558;DHT22;11445;53.816;8.902;2023-11-21T08:31:44;7.40;99.90
22558;DHT22;11445;53.816;8.902;2023-11-21T08:34:12;7.40;99.90
22558;DHT22;11445;53.816;8.902;2023-11-21T08:36:41;7.40;99.90
22558;DHT22;11445;53.816;8.902;2023-11-21T08:39:08;7.40;99.90
22558;DHT22;11445;53.816;8.902;2023-11-21T08:41:36;7.50;99.90
22558;DHT22;11445;53.816;8.902;2023-11-21T08:44:04;7.50;99.90
22558;DHT22;11445;53.816;8.902;2023-11-21T08:46:32;7.50;99.90
22558;DHT22;11445;53.816;8.902;2023-11-21T08:49:01;7.60;99.90
22558;DHT22;11445;53.816;8.902;2023-11-21T08:51:27;7.60;99.90
22558;DHT22;11445;53.816;8.902;2023-11-21T08:53:54;7.60;99.90
22558;DHT22;11445;53.816;8.902;2023-11-21T08:56:24;7.60;99.90
22558;DHT22;11445;53.816;8.902;2023-11-21T08:58:51;7.60;99.90
22558;DHT22;11445;53.816;8.902;2023-11-21T09:01:19;7.70;99.90
22558;DHT22;11445;53.816;8.902;2023-11-21T09:03:46;7.70;99.90
22558;DHT22;11445;53.816;8.902;2023-11-21T09:06:13;7.70;99.90
22558;DHT22;11445;53.816;8.902;2023-11-21T09:08:40;7.70;99.90
22558;DHT22;11445;53.816;8.902;2023-11-21T09:11:07;7.60;99.90
22558;DHT22;11445;53.816;8.902;2023-11-21T09:13:34;7.70;99.90
22558;DHT22;11445;53.816;8.902;2023-11-21T09:16:01;7.70;99.90
22558;DHT22;11445;53.816;8.902;2023-11-21T09:18:30;7.60;99.90
22558;DHT22;11445;53.816;8.902;2023-11-21T09:20:57;7.70;99.90
22558;DHT22;11445;53.816;8.902;2023-11-21T09:23:24;7.70;99.90
22558;DHT22;11445;53.816;8.902;2023-11-21T09:25:51;7.70;99.90
22558;DHT22;11445;53.816;8.902;2023-11-21T09:28:22;7.70;99.90
22558;DHT22;11445;53.816;8.902;2023-11-21T09:30:49;7.70;99.90
22558;DHT22;11445;53.816;8.902;2023-11-21T09:33:15;7.70;99.90
22558;DHT22;11445;53.816;8.902;2023-11-21T09:35:44;7.70;99.90
22558;DHT22;11445;53.816;8.902;2023-11-21T09:38:11;7.70;99.90
22558;DHT22;11445;53.816;8.902;2023-11-21T09:40:38;7.70;99.90
22558;DHT22;11445;53.816;8.902;2023-11-21T09:43:06;7.80;99.90
22558;DHT22;11445;53.816;8.902;2023-11-21T09:45:39;7.80;99.90
22558;DHT22;11445;53.816;8.902;2023-11-21T09:48:07;7.70;99.90
22558;DHT22;11445;53.816;8.902;2023-11-21T09:50:36;7.80;99.90
22558;DHT22;11445;53.816;8.902;2023-11-21T09:53:11;7.80;99.90
22558;DHT22;11445;53.816;8.902;2023-11-21T09:55:42;7.80;99.90
22558;DHT22;11445;53.816;8.902;2023-11-21T09:58:10;7.80;99.90
22558;DHT22;11445;53.816;8.902;2023-11-21T10:00:40;7.80;99.90
22558;DHT22;11445;53.816;8.902;2023-11-21T10:03:08;7.80;99.90
22558;DHT22;11445;53.816;8.902;2023-11-21T10:05:35;7.90;99.90
22558;DHT22;11445;53.816;8.902;2023-11-21T10:08:07;7.90;99.90
22558;DHT22;11445;53.816;8.902;2023-11-21T10:10:35;7.90;99.90
22558;DHT22;11445;53.816;8.902;2023-11-21T10:13:03;7.90;99.90
22558;DHT22;11445;53.816;8.902;2023-11-21T10:15:33;7.90;99.90
22558;DHT22;11445;53.816;8.902;2023-11-21T10:18:02;7.90;99.90
22558;DHT22;11445;53.816;8.902;2023-11-21T10:20:30;7.90;99.90
22558;DHT22;11445;53.816;8.902;2023-11-21T10:22:59;7.90;99.90
22558;DHT22;11445;53.816;8.902;2023-11-21T10:25:29;7.90;99.90
22558;DHT22;11445;53.816;8.902;2023-11-21T10:27:58;7.90;99.90
22558;DHT22;11445;53.816;8.902;2023-11-21T10:30:29;7.90;99.90
22558;DHT22;11445;53.816;8.902;2023-11-21T10:32:59;7.90;99.90
22558;DHT22;11445;53.816;8.902;2023-11-21T10:35:39;7.90;99.90
22558;DHT22;11445;53.816;8.902;2023-11-21T10:38:06;8.00;99.90
22558;DHT22;11445;53.816;8.902;2023-11-21T10:40:39;8.00;99.90
22558;DHT22;11445;53.816;8.902;2023-11-21T10:43:07;8.00;99.90
22558;DHT22;11445;53.816;8.902;2023-11-21T10:45:35;7.90;99.90
22558;DHT22;11445;53.816;8.902;2023-11-21T10:48:05;7.90;99.90
22558;DHT22;11445;53.816;8.902;2023-11-21T10:50:33;7.90;99.90
22558;DHT22;11445;53.816;8.902;2023-11-21T10:53:01;7.90;99.90
22558;DHT22;11445;53.816;8.902;2023-11-21T10:55:29;7.90;99.90
22558;DHT22;11445;53.816;8.902;2023-11-21T10:57:59;7.90;99.90
22558;DHT22;11445;53.816;8.902;2023-11-21T11:00:27;7.90;99.90
22558;DHT22;11445;53.816;8.902;2023-11-21T11:02:55;7.90;99.90
22558;DHT22;11445;53.816;8.902;2023-11-21T11:05:23;8.00;99.90
22558;DHT22;11445;53.816;8.902;2023-11-21T11:07:53;8.10;99.90
22558;DHT22;11445;53.816;8.902;2023-11-21T11:10:25;8.20;99.90
22558;DHT22;11445;53.816;8.902;2023-11-21T11:12:53;8.20;99.90
22558;DHT22;11445;53.816;8.902;2023-11-21T11:15:22;8.20;99.90
22558;DHT22;11445;53.816;8.902;2023-11-21T11:17:49;8.30;99.90
22558;DHT22;11445;53.816;8.902;2023-11-21T11:20:17;8.20;99.90
22558;DHT22;11445;53.816;8.902;2023-11-21T11:22:54;8.20;99.90
22558;DHT22;11445;53.816;8.902;2023-11-21T11:25:37;8.20;99.90
22558;DHT22;11445;53.816;8.902;2023-11-21T11:28:17;8.20;99.90
22558;DHT22;11445;53.816;8.902;2023-11-21T11:30:57;8.20;99.90
22558;DHT22;11445;53.816;8.902;2023-11-21T11:33:33;8.20;99.90
22558;DHT22;11445;53.816;8.902;2023-11-21T11:36:06;8.30;99.90
22558;DHT22;11445;53.816;8.902;2023-11-21T11:38:35;8.20;99.90
22558;DHT22;11445;53.816;8.902;2023-11-21T11:41:03;8.30;99.90
22558;DHT22;11445;53.816;8.902;2023-11-21T11:43:30;8.30;99.90
22558;DHT22;11445;53.816;8.902;2023-11-21T11:46:02;8.30;99.90
22558;DHT22;11445;53.816;8.902;2023-11-21T11:48:30;8.20;99.90
22558;DHT22;11445;53.816;8.902;2023-11-21T11:51:02;8.20;99.90
22558;DHT22;11445;53.816;8.902;2023-11-21T11:53:35;8.20;99.90
22558;DHT22;11445;53.816;8.902;2023-11-21T11:56:21;8.20;99.90
22558;DHT22;11445;53.816;8.902;2023-11-21T11:58:51;8.20;99.90
22558;DHT22;11445;53.816;8.902;2023-11-21T12:01:20;8.10;99.90
22558;DHT22;11445;53.816;8.902;2023-11-21T12:04:25;8.10;99.90
22558;DHT22;11445;53.816;8.902;2023-11-21T12:07:00;8.20;99.90
22558;DHT22;11445;53.816;8.902;2023-11-21T12:09:30;8.20;99.90
22558;DHT22;11445;53.816;8.902;2023-11-21T12:11:58;8.20;99.90
22558;DHT22;11445;53.816;8.902;2023-11-21T12:14:25;8.20;99.90
22558;DHT22;11445;53.816;8.902;2023-11-21T12:16:54;8.20;99.90
22558;DHT22;11445;53.816;8.902;2023-11-21T12:19:21;8.30;99.90
22558;DHT22;11445;53.816;8.902;2023-11-21T12:21:49;8.30;99.90
22558;DHT22;11445;53.816;8.902;2023-11-21T12:24:16;8.30;99.90
22558;DHT22;11445;53.816;8.902;2023-11-21T12:26:43;8.30;99.90
22558;DHT22;11445;53.816;8.902;2023-11-21T12:29:10;8.30;99.90
22558;DHT22;11445;53.816;8.902;2023-11-21T12:31:37;8.20;99.90
22558;DHT22;11445;53.816;8.902;2023-11-21T12:34:06;8.10;99.90
22558;DHT22;11445;53.816;8.902;2023-11-21T12:36:34;8.00;99.90
22558;DHT22;11445;53.816;8.902;2023-11-21T12:39:02;7.90;99.90
22558;DHT22;11445;53.816;8.902;2023-11-21T12:41:29;7.90;99.90
22558;DHT22;11445;53.816;8.902;2023-11-21T12:43:57;7.80;99.90
22558;DHT22;11445;53.816;8.902;2023-11-21T12:46:24;7.70;99.90
22558;DHT22;11445;53.816;8.902;2023-11-21T12:48:55;7.70;99.90
22558;DHT22;11445;53.816;8.902;2023-11-21T12:51:25;7.70;99.90
22558;DHT22;11445;53.816;8.902;2023-11-21T12:53:52;7.70;99.90
22558;DHT22;11445;53.816;8.902;2023-11-21T12:56:21;7.70;99.90
22558;DHT22;11445;53.816;8.902;2023-11-21T12:58:49;7.80;99.90
22558;DHT22;11445;53.816;8.902;2023-11-21T13:03:47;7.70;99.90
22558;DHT22;11445;53.816;8.902;2023-11-21T13:06:17;7.60;99.90
22558;DHT22;11445;53.816;8.902;2023-11-21T13:08:45;7.60;99.90
22558;DHT22;11445;53.816;8.902;2023-11-21T13:11:12;7.50;99.90
22558;DHT22;11445;53.816;8.902;2023-11-21T13:13:41;7.50;99.90
22558;DHT22;11445;53.816;8.902;2023-11-21T13:16:09;7.50;99.90
22558;DHT22;11445;53.816;8.902;2023-11-21T13:18:36;7.50;99.90
22558;DHT22;11445;53.816;8.902;2023-11-21T13:21:04;7.50;99.90
22558;DHT22;11445;53.816;8.902;2023-11-21T13:23:36;7.50;99.90
22558;DHT22;11445;53.816;8.902;2023-11-21T13:26:05;7.50;99.90
22558;DHT22;11445;53.816;8.902;2023-11-21T13:28:32;7.50;99.90
22558;DHT22;11445;53.816;8.902;2023-11-21T13:31:00;7.50;99.90
22558;DHT22;11445;53.816;8.902;2023-11-21T13:33:34;7.50;99.90
22558;DHT22;11445;53.816;8.902;2023-11-21T13:36:04;7.50;99.90
22558;DHT22;11445;53.816;8.902;2023-11-21T13:38:33;7.50;99.90
22558;DHT22;11445;53.816;8.902;2023-11-21T13:41:01;7.50;99.90
22558;DHT22;11445;53.816;8.902;2023-11-21T13:43:34;7.40;99.90
22558;DHT22;11445;53.816;8.902;2023-11-21T13:46:02;7.40;99.90
22558;DHT22;11445;53.816;8.902;2023-11-21T13:48:38;7.40;99.90
22558;DHT22;11445;53.816;8.902;2023-11-21T13:51:08;7.40;99.90
22558;DHT22;11445;53.816;8.902;2023-11-21T13:53:42;7.40;99.90
22558;DHT22;11445;53.816;8.902;2023-11-21T13:56:10;7.40;99.90
22558;DHT22;11445;53.816;8.902;2023-11-21T13:58:39;7.40;99.90
22558;DHT22;11445;53.816;8.902;2023-11-21T14:01:12;7.40;99.90
22558;DHT22;11445;53.816;8.902;2023-11-21T14:03:58;7.40;99.90
22558;DHT22;11445;53.816;8.902;2023-11-21T14:06:34;7.30;99.90
22558;DHT22;11445;53.816;8.902;2023-11-21T14:09:09;7.30;99.90
22558;DHT22;11445;53.816;8.902;2023-11-21T14:11:39;7.30;99.90
22558;DHT22;11445;53.816;8.902;2023-11-21T14:14:07;7.30;99.90
22558;DHT22;11445;53.816;8.902;2023-11-21T14:16:35;7.20;99.90
22558;DHT22;11445;53.816;8.902;2023-11-21T14:19:02;7.20;99.90
22558;DHT22;11445;53.816;8.902;2023-11-21T14:21:39;7.20;99.90
22558;DHT22;11445;53.816;8.902;2023-11-21T14:24:08;7.20;99.90
22558;DHT22;11445;53.816;8.902;2023-11-21T14:26:35;7.10;99.90
22558;DHT22;11445;53.816;8.902;2023-11-21T14:29:03;7.20;99.90
22558;DHT22;11445;53.816;8.902;2023-11-21T14:31:31;7.10;99.90
22558;DHT22;11445;53.816;8.902;2023-11-21T14:33:59;7.10;99.90
22558;DHT22;11445;53.816;8.902;2023-11-21T14:36:27;7.10;99.90
22558;DHT22;11445;53.816;8.902;2023-11-21T14:38:54;7.10;99.90
22558;DHT22;11445;53.816;8.902;2023-11-21T14:41:21;7.00;99.90
22558;DHT22;11445;53.816;8.902;2023-11-21T14:43:48;7.00;99.90
22558;DHT22;11445;53.816;8.902;2023-11-21T14:46:15;7.00;99.90
22558;DHT22;11445;53.816;8.902;2023-11-21T14:48:46;7.00;99.90
22558;DHT22;11445;53.816;8.902;2023-11-21T14:51:24;6.90;99.90
22558;DHT22;11445;53.816;8.902;2023-11-21T14:53:56;7.00;99.90
22558;DHT22;11445;53.816;8.902;2023-11-21T14:56:26;6.90;99.90
22558;DHT22;11445;53.816;8.902;2023-11-21T14:58:56;6.90;99.90
22558;DHT22;11445;53.816;8.902;2023-11-21T15:01:25;6.90;99.90
22558;DHT22;11445;53.816;8.902;2023-11-21T15:04:09;7.00;99.90
22558;DHT22;11445;53.816;8.902;2023-11-21T15:06:49;6.90;99.90
22558;DHT22;11445;53.816;8.902;2023-11-21T15:09:15;6.90;99.90
22558;DHT22;11445;53.816;8.902;2023-11-21T15:12:02;6.90;99.90
22558;DHT22;11445;53.816;8.902;2023-11-21T15:14:39;6.80;99.90
22558;DHT22;11445;53.816;8.902;2023-11-21T15:17:06;6.80;99.90
22558;DHT22;11445;53.816;8.902;2023-11-21T15:19:34;6.80;99.90
22558;DHT22;11445;53.816;8.902;2023-11-21T15:22:01;6.80;99.90
22558;DHT22;11445;53.816;8.902;2023-11-21T15:24:28;6.80;99.90
22558;DHT22;11445;53.816;8.902;2023-11-21T15:26:55;6.80;99.90
22558;DHT22;11445;53.816;8.902;2023-11-21T15:29:22;6.70;99.90
22558;DHT22;11445;53.816;8.902;2023-11-21T15:31:49;6.70;99.90
22558;DHT22;11445;53.816;8.902;2023-11-21T15:34:21;6.70;99.90
22558;DHT22;11445;53.816;8.902;2023-11-21T15:36:49;6.70;99.90
22558;DHT22;11445;53.816;8.902;2023-11-21T15:39:19;6.70;99.90
22558;DHT22;11445;53.816;8.902;2023-11-21T15:41:49;6.70;99.90
22558;DHT22;11445;53.816;8.902;2023-11-21T15:44:16;6.70;99.90
22558;DHT22;11445;53.816;8.902;2023-11-21T15:46:43;6.70;99.90
22558;DHT22;11445;53.816;8.902;2023-11-21T15:49:10;6.70;99.90
22558;DHT22;11445;53.816;8.902;2023-11-21T15:51:39;6.70;99.90
22558;DHT22;11445;53.816;8.902;2023-11-21T15:54:08;6.90;99.90
22558;DHT22;11445;53.816;8.902;2023-11-21T15:56:35;6.90;99.90